Time;durP1;ratioP1;P1;durP2;ratioP2;P2;SDS_P1;SDS_P2;PMS_P1;PMS_P2;Temp;Humidity;BMP_temperature;BMP_pressure;BME280_temperature;BME280_humidity;BME280_pressure;Samples;Min_cycle;Max_cycle;Signal;HPM_P1;HPM_P2
2022/01/18 00:03:35;;;;;;;9.80;3.10;;;;;;;-1.69;83.12;99717.00;220111;1271;22544;-71
2022/01/18 00:08:53;;;;;;;11.10;3.50;;;;;;;-1.67;83.20;99713.54;220032;1271;22574;-69
2022/01/18 00:20:17;;;;;;;11.20;3.80;;;;;;;-1.68;82.89;99726.75;219923;1271;25503;-69
2022/01/18 00:25:27;;;;;;;9.50;3.40;;;;;;;-1.72;82.96;99727.33;220160;1271;27402;-70
2022/01/18 00:35:51;;;;;;;13.80;4.50;;;;;;;-1.81;82.77;99734.17;220001;1271;22758;-68
2022/01/18 00:40:54;;;;;;;11.10;3.70;;;;;;;-1.83;83.12;99736.08;220305;1271;22525;-70
2022/01/18 00:45:56;;;;;;;10.50;2.90;;;;;;;-1.86;83.03;99745.02;219868;1271;25584;-69
2022/01/18 00:50:59;;;;;;;12.10;2.60;;;;;;;-1.86;83.24;99752.00;219933;1271;22549;-68
2022/01/18 00:56:22;;;;;;;7.00;2.60;;;;;;;-1.86;83.12;99761.34;220143;1271;24279;-70
2022/01/18 01:01:28;;;;;;;9.90;2.60;;;;;;;-1.86;83.21;99770.23;220010;1271;25257;-71
2022/01/18 01:06:32;;;;;;;6.60;2.10;;;;;;;-1.86;83.41;99781.09;220214;1270;23708;-67
2022/01/18 01:11:48;;;;;;;;;;;;;;;;;;;;;
2022/01/18 01:17:19;;;;;;;9.40;2.30;;;;;;;-1.90;83.28;99785.14;220057;1271;22784;-70
2022/01/18 01:34:37;;;;;;;10.80;3.20;;;;;;;-1.99;83.42;99802.22;219825;1271;22639;-70
2022/01/18 01:45:24;;;;;;;10.20;3.40;;;;;;;-2.08;83.56;99800.44;219463;1271;22777;-70
2022/01/18 01:50:50;;;;;;;16.20;3.90;;;;;;;-2.14;83.58;99799.15;220047;1271;22638;-68
2022/01/18 01:55:57;;;;;;;15.50;4.50;;;;;;;-2.17;83.52;99798.17;220105;1271;25267;-69
2022/01/18 02:01:06;;;;;;;16.60;4.20;;;;;;;-2.22;83.50;99794.52;219745;1271;25035;-68
2022/01/18 02:06:11;;;;;;;19.00;5.50;;;;;;;-2.26;83.73;99800.39;219769;1271;22544;-69
2022/01/18 02:11:19;;;;;;;21.80;6.50;;;;;;;-2.31;83.71;99802.38;219684;1271;25395;-70
2022/01/18 02:21:49;;;;;;;16.20;5.90;;;;;;;-2.46;83.82;99791.84;220659;1271;22555;-69
2022/01/18 02:26:52;;;;;;;24.70;6.90;;;;;;;-2.53;83.76;99779.21;219620;1271;22596;-69
2022/01/18 02:31:56;;;;;;;19.80;5.90;;;;;;;-2.59;84.10;99778.16;219624;1271;22560;-69
2022/01/18 02:37:16;;;;;;;15.20;4.80;;;;;;;-2.64;83.91;99775.55;219951;1270;22701;-70
2022/01/18 02:42:30;;;;;;;11.30;4.00;;;;;;;-2.65;84.18;99777.35;220103;1271;22743;-69
2022/01/18 02:47:35;;;;;;;13.90;3.30;;;;;;;-2.63;84.28;99784.39;220185;1270;22568;-71
2022/01/18 02:52:37;;;;;;;7.20;2.70;;;;;;;-2.58;84.58;99785.80;219937;1270;22944;-69
2022/01/18 02:58:02;;;;;;;11.40;3.00;;;;;;;-2.53;84.82;99791.98;220024;1271;22881;-70
2022/01/18 03:03:25;;;;;;;13.50;2.90;;;;;;;-2.48;84.70;99790.16;219956;1271;24244;-70
2022/01/18 03:13:40;;;;;;;13.80;3.20;;;;;;;-2.44;84.57;99792.71;220590;1271;22550;-70
2022/01/18 03:18:45;;;;;;;7.30;2.50;;;;;;;-2.45;84.54;99804.66;220781;1271;25558;-69
2022/01/18 03:24:10;;;;;;;9.00;2.50;;;;;;;-2.45;84.59;99812.58;220899;1271;24393;-70
2022/01/18 03:29:15;;;;;;;12.20;3.00;;;;;;;-2.44;84.71;99816.70;220672;1271;26403;-71
2022/01/18 03:34:21;;;;;;;15.40;3.10;;;;;;;-2.45;84.84;99828.64;220700;1271;25305;-70
2022/01/18 03:39:27;;;;;;;10.60;2.20;;;;;;;-2.44;85.00;99832.55;220234;1271;22544;-71
2022/01/18 03:44:50;;;;;;;8.30;2.40;;;;;;;-2.43;84.68;99833.29;220302;1271;22566;-69
2022/01/18 03:49:55;;;;;;;9.70;2.10;;;;;;;-2.39;84.72;99840.27;220303;1270;22559;-69
2022/01/18 03:54:57;;;;;;;9.90;3.20;;;;;;;-2.36;84.99;99845.14;220078;1271;22543;-69
2022/01/18 04:00:00;;;;;;;15.00;3.60;;;;;;;-2.31;85.05;99857.98;219898;1270;22607;-69
2022/01/18 04:05:13;;;;;;;12.70;2.60;;;;;;;-2.20;85.08;99862.09;219786;1269;22556;-69
2022/01/18 04:10:26;;;;;;;9.40;2.60;;;;;;;-2.13;85.07;99861.41;219837;1271;22544;-69
2022/01/18 04:15:31;;;;;;;15.90;2.90;;;;;;;-2.09;84.90;99866.06;219575;1271;22562;-69
2022/01/18 04:31:29;;;;;;;14.30;3.00;;;;;;;-1.83;85.11;99903.66;219917;1271;25139;-70
2022/01/18 04:36:53;;;;;;;20.70;3.50;;;;;;;-1.70;85.11;99915.48;219577;1271;25479;-70
2022/01/18 04:41:55;;;;;;;11.80;2.60;;;;;;;-1.59;85.05;99916.42;219677;1271;26281;-70
2022/01/18 04:52:26;;;;;;;10.20;3.40;;;;;;;-1.39;84.87;99936.39;219916;1271;26395;-69
2022/01/18 05:02:58;;;;;;;10.20;3.00;;;;;;;-1.25;84.82;99939.40;219735;1271;22649;-69
2022/01/18 05:08:06;;;;;;;10.60;2.90;;;;;;;-1.20;84.88;99938.66;219745;1271;26444;-71
2022/01/18 05:13:20;;;;;;;10.30;2.80;;;;;;;-1.16;84.69;99946.08;220027;1271;22618;-69
2022/01/18 05:23:35;;;;;;;11.80;3.20;;;;;;;-1.11;84.52;99948.28;220220;1271;25431;-69
2022/01/18 05:29:00;;;;;;;7.40;2.70;;;;;;;-1.08;84.60;99948.77;219997;1271;25605;-69
2022/01/18 05:34:38;;;;;;;9.70;2.40;;;;;;;-1.06;84.58;99945.77;220038;1271;22553;-69
2022/01/18 05:40:09;;;;;;;17.80;3.30;;;;;;;-1.04;84.60;99953.75;220101;1271;22649;-71
2022/01/18 05:51:00;;;;;;;9.50;2.60;;;;;;;-0.99;84.33;99952.48;219880;1268;24160;-70
2022/01/18 05:56:03;;;;;;;7.50;2.70;;;;;;;-0.99;84.27;99955.14;219524;1271;24259;-70
2022/01/18 06:01:06;;;;;;;10.20;2.70;;;;;;;-0.98;84.18;99960.91;220071;1271;22544;-69
2022/01/18 06:11:34;;;;;;;8.80;2.80;;;;;;;-0.94;84.28;99974.95;219980;1270;24243;-70
2022/01/18 06:16:37;;;;;;;9.50;3.00;;;;;;;-0.94;84.21;99981.71;220062;1271;22538;-70
2022/01/18 06:21:57;;;;;;;5.20;2.40;;;;;;;-0.94;84.12;99983.27;219461;1269;23905;-70
2022/01/18 06:27:04;;;;;;;13.70;4.10;;;;;;;-0.95;84.13;99988.27;220908;1270;22600;-70
2022/01/18 06:32:44;;;;;;;11.40;3.80;;;;;;;-0.96;83.98;99985.09;219944;1271;24137;-70
2022/01/18 06:38:12;;;;;;;13.50;3.10;;;;;;;-0.96;84.26;99988.29;219913;1271;26592;-70
2022/01/18 06:43:46;;;;;;;8.80;2.60;;;;;;;-0.97;84.15;99996.50;219778;1270;23136;-69
2022/01/18 06:49:17;;;;;;;9.40;2.80;;;;;;;-0.99;84.25;100008.04;219786;1270;25372;-70
2022/01/18 06:54:18;;;;;;;14.00;3.40;;;;;;;-0.97;84.01;100019.11;219390;1271;22557;-69
2022/01/18 06:59:44;;;;;;;11.80;3.10;;;;;;;-0.97;84.22;100022.72;219544;1271;22629;-70
2022/01/18 07:05:41;;;;;;;7.40;2.80;;;;;;;-0.94;84.48;100031.66;218808;1269;22730;-69
2022/01/18 07:11:10;;;;;;;14.00;4.00;;;;;;;-0.93;84.20;100034.31;221561;1271;22730;-70
2022/01/18 07:17:04;;;;;;;17.90;4.70;;;;;;;-0.89;84.28;100045.29;221243;1269;22677;-70
2022/01/18 07:22:10;;;;;;;12.90;3.50;;;;;;;-0.85;84.41;100052.70;221515;1269;23031;-70
2022/01/18 07:27:59;;;;;;;11.20;4.30;;;;;;;-0.82;84.34;100055.18;221101;1271;22678;-71
2022/01/18 07:33:08;;;;;;;11.10;4.30;;;;;;;-0.79;84.05;100052.67;219620;1268;22547;-68
2022/01/18 07:38:27;;;;;;;19.00;5.40;;;;;;;-0.75;84.26;100055.02;219476;1271;22838;-70
2022/01/18 07:43:30;;;;;;;17.40;4.00;;;;;;;-0.71;84.29;100067.21;219533;1268;25545;-69
2022/01/18 07:48:54;;;;;;;8.00;3.00;;;;;;;-0.68;84.09;100074.75;219224;1271;22532;-69
2022/01/18 07:54:03;;;;;;;14.40;3.90;;;;;;;-0.67;84.17;100090.56;219458;1269;22561;-69
2022/01/18 07:59:33;;;;;;;13.60;4.10;;;;;;;-0.65;84.02;100098.63;219717;1269;22534;-69
2022/01/18 08:04:37;;;;;;;11.90;3.60;;;;;;;-0.64;84.00;100108.26;219249;1271;24282;-70
2022/01/18 08:09:47;;;;;;;;;;;;;;;-0.59;84.04;100103.67;219678;1270;26358;-71
2022/01/18 08:14:59;;;;;;;12.80;3.20;;;;;;;-0.53;83.97;100118.80;219888;1268;23100;-69
2022/01/18 08:21:03;;;;;;;;;;;;;;;;;;;;;
2022/01/18 08:26:27;;;;;;;11.90;4.40;;;;;;;-0.46;83.77;100140.89;219416;1271;22696;-70
2022/01/18 08:31:30;;;;;;;11.40;4.10;;;;;;;-0.40;83.58;100137.64;219734;1271;22697;-70
2022/01/18 08:36:52;;;;;;;9.70;3.70;;;;;;;-0.34;83.55;100155.02;221374;1271;23419;-72
2022/01/18 08:41:55;;;;;;;20.30;5.60;;;;;;;-0.26;83.21;100159.33;221238;1271;22540;-71
2022/01/18 08:47:24;;;;;;;17.30;4.60;;;;;;;-0.22;82.96;100166.52;221214;1271;24621;-71
2022/01/18 08:52:51;;;;;;;14.70;4.50;;;;;;;-0.18;83.19;100176.30;220920;1271;23084;-70
2022/01/18 08:58:03;;;;;;;14.00;5.00;;;;;;;-0.12;82.95;100188.88;221681;1271;24227;-72
2022/01/18 09:03:10;;;;;;;10.80;4.10;;;;;;;-0.10;82.63;100195.80;221222;1271;25373;-71
2022/01/18 09:08:24;;;;;;;13.10;4.00;;;;;;;-0.06;82.75;100203.56;219797;1271;22621;-70
2022/01/18 09:13:53;;;;;;;10.60;4.20;;;;;;;-0.01;82.44;100215.66;219728;1271;22564;-71
2022/01/18 09:19:31;;;;;;;13.90;5.40;;;;;;;0.03;82.29;100229.56;219550;1271;25363;-72
2022/01/18 09:25:09;;;;;;;13.90;5.40;;;;;;;0.11;82.35;100232.89;220956;1271;22478;-71
2022/01/18 09:30:42;;;;;;;14.90;4.40;;;;;;;0.19;81.84;100236.30;221212;1269;22598;-71
2022/01/18 09:36:17;;;;;;;11.90;3.50;;;;;;;0.27;81.96;100236.99;221230;1269;25317;-71
2022/01/18 09:41:36;;;;;;;7.30;3.00;;;;;;;0.33;81.57;100239.49;221127;1268;22538;-71
2022/01/18 09:46:54;;;;;;;12.00;3.10;;;;;;;0.38;81.28;100248.67;221484;1269;24240;-71
2022/01/18 09:52:47;;;;;;;14.40;3.70;;;;;;;0.38;80.95;100258.33;221344;1269;22569;-72
2022/01/18 09:58:30;;;;;;;;;;;;;;;;;;;;;
2022/01/18 10:04:38;;;;;;;10.20;3.00;;;;;;;0.29;80.57;100255.11;221061;1271;24419;-72
2022/01/18 10:10:50;;;;;;;11.30;4.00;;;;;;;0.28;80.17;100258.48;220677;1269;22587;-71
2022/01/18 10:16:45;;;;;;;12.60;4.60;;;;;;;0.34;80.60;100250.90;221064;1269;24106;-72
2022/01/18 10:27:40;;;;;;;10.70;3.40;;;;;;;0.41;79.91;100271.27;221139;1271;25402;-71
2022/01/18 10:39:22;;;;;;;11.00;4.00;;;;;;;0.26;79.64;100283.88;221310;1271;25411;-72
2022/01/18 10:45:56;;;;;;;12.30;4.40;;;;;;;0.27;79.69;100277.84;221204;1271;23829;-71
2022/01/18 10:51:48;;;;;;;11.90;4.70;;;;;;;0.33;79.89;100274.50;220985;1271;22543;-70
2022/01/18 10:57:15;;;;;;;;;;;;;;;;;;;;;
2022/01/18 11:02:58;;;;;;;14.30;5.80;;;;;;;0.42;79.83;100267.35;221194;1271;24336;-71
2022/01/18 11:09:05;;;;;;;11.70;3.40;;;;;;;0.43;79.77;100273.48;220984;1269;22551;-71
2022/01/18 11:14:38;;;;;;;15.50;4.70;;;;;;;0.43;79.35;100274.17;221431;1268;22560;-71
2022/01/18 11:20:04;;;;;;;17.10;5.60;;;;;;;0.38;79.39;100273.91;221326;1271;22602;-71
2022/01/18 11:25:17;;;;;;;17.40;5.80;;;;;;;0.36;79.33;100269.63;221268;1271;24371;-71
2022/01/18 11:30:53;;;;;;;19.70;6.10;;;;;;;0.34;79.36;100277.57;220842;1271;22590;-71
2022/01/18 11:36:47;;;;;;;;;;;;;;;;;;;;;
2022/01/18 11:42:08;;;;;;;13.70;6.20;;;;;;;0.46;79.39;100281.80;220936;1271;25553;-72
2022/01/18 11:47:57;;;;;;;;;;;;;;;;;;;;;
2022/01/18 11:59:57;;;;;;;;;;;;;;;;;;;;;
2022/01/18 12:05:26;;;;;;;;;;;;;;;;;;;;;
2022/01/18 12:11:36;;;;;;;8.30;3.60;;;;;;;0.71;78.60;100307.33;221982;1268;25674;-71
2022/01/18 12:17:18;;;;;;;11.00;4.50;;;;;;;0.73;78.56;100314.20;221653;1270;22555;-69
2022/01/18 12:23:34;;;;;;;13.00;4.40;;;;;;;0.80;78.77;100317.77;221735;1269;25251;-71
2022/01/18 12:35:02;;;;;;;11.20;5.10;;;;;;;0.80;78.52;100317.60;221133;1270;22602;-71
2022/01/18 12:40:28;;;;;;;20.10;7.80;;;;;;;0.86;78.64;100315.15;221086;1271;22675;-71
2022/01/18 12:46:24;;;;;;;22.70;10.00;;;;;;;0.97;78.55;100320.19;221080;1271;23839;-71
2022/01/18 12:51:35;;;;;;;25.30;9.70;;;;;;;1.03;78.56;100327.63;221093;1270;24101;-71
2022/01/18 13:02:21;;;;;;;20.10;7.40;;;;;;;0.94;78.18;100328.43;221361;1271;23883;-71
2022/01/18 13:08:18;;;;;;;17.90;7.50;;;;;;;0.89;78.16;100333.61;220986;1271;23313;-71
2022/01/18 13:14:29;;;;;;;29.30;10.00;;;;;;;0.88;78.28;100339.38;220626;1270;22587;-72
2022/01/18 13:25:21;;;;;;;22.20;9.90;;;;;;;0.91;78.46;100335.51;221251;1270;22545;-71
2022/01/18 13:30:44;;;;;;;18.40;8.00;;;;;;;0.95;78.30;100335.47;220912;1270;22590;-71
2022/01/18 13:36:04;;;;;;;18.40;6.20;;;;;;;0.95;78.44;100333.11;220927;1270;24306;-71
2022/01/18 13:41:38;;;;;;;16.80;6.20;;;;;;;0.88;78.34;100340.22;220996;1270;25428;-71
2022/01/18 13:46:49;;;;;;;11.00;5.50;;;;;;;0.79;78.64;100350.43;221005;1270;24360;-71
2022/01/18 13:52:09;;;;;;;22.80;8.70;;;;;;;0.73;78.46;100359.13;220984;1270;22547;-73
2022/01/18 13:57:22;;;;;;;16.10;6.70;;;;;;;0.72;78.48;100361.14;220911;1271;22572;-72
2022/01/18 14:02:30;;;;;;;23.70;11.00;;;;;;;0.72;78.58;100362.27;221099;1271;22560;-71
2022/01/18 14:08:02;;;;;;;29.40;11.00;;;;;;;0.68;78.74;100362.83;220593;1271;24521;-71
2022/01/18 14:13:46;;;;;;;28.00;11.90;;;;;;;0.64;78.73;100367.86;221117;1271;25418;-71
2022/01/18 14:19:34;;;;;;;29.40;10.90;;;;;;;0.61;78.84;100373.54;220835;1270;23675;-71
2022/01/18 14:25:29;;;;;;;20.90;8.70;;;;;;;0.55;78.52;100370.91;221007;1268;22558;-71
2022/01/18 14:30:47;;;;;;;30.00;10.70;;;;;;;0.49;78.61;100373.15;221051;1268;22550;-71
2022/01/18 14:36:09;;;;;;;;;;;;;;;;;;;;;
2022/01/18 14:42:32;;;;;;;26.60;10.80;;;;;;;0.50;78.94;100388.34;221280;1268;24880;-70
2022/01/18 14:49:05;;;;;;;32.80;11.80;;;;;;;0.44;78.97;100391.22;221203;1269;24217;-71
2022/01/18 14:55:33;;;;;;;;;;;;;;;;;;;;;
2022/01/18 15:01:21;;;;;;;23.20;10.20;;;;;;;0.36;79.18;100397.27;221311;1271;24240;-71
2022/01/18 15:07:27;;;;;;;27.80;11.30;;;;;;;0.34;79.29;100407.98;221091;1271;25363;-71
2022/01/18 15:12:45;;;;;;;26.60;11.90;;;;;;;0.32;79.03;100411.13;220714;1271;25457;-71
2022/01/18 15:18:35;;;;;;;23.70;9.50;;;;;;;0.30;79.05;100408.07;220970;1271;24240;-71
2022/01/18 15:23:52;;;;;;;19.40;7.70;;;;;;;0.27;79.11;100418.94;220617;1271;22986;-71
2022/01/18 15:30:05;;;;;;;23.60;10.80;;;;;;;0.23;79.03;100422.83;220539;1271;23521;-71
2022/01/18 15:36:20;;;;;;;33.20;13.50;;;;;;;0.22;79.30;100427.81;220753;1271;23837;-72
2022/01/18 15:41:57;;;;;;;41.10;17.10;;;;;;;0.23;79.28;100433.77;221055;1271;25430;-71
2022/01/18 15:47:03;;;;;;;49.40;18.70;;;;;;;0.24;79.46;100425.98;221348;1271;24240;-72
2022/01/18 15:52:32;;;;;;;;;;;;;;;;;;;;;
2022/01/18 15:58:28;;;;;;;;;;;;;;;;;;;;;
2022/01/18 16:03:59;;;;;;;75.10;27.70;;;;;;;0.29;79.77;100429.17;220315;1271;22914;-72
2022/01/18 16:09:24;;;;;;;68.70;28.60;;;;;;;0.31;79.88;100433.79;220951;1271;26000;-72
2022/01/18 16:15:04;;;;;;;73.60;30.40;;;;;;;0.32;79.91;100446.14;220886;1270;22554;-71
2022/01/18 16:20:32;;;;;;;;;;;;;;;;;;;;;
2022/01/18 16:26:28;;;;;;;67.00;30.90;;;;;;;0.29;80.06;100439.46;221158;1269;22566;-72
2022/01/18 16:32:42;;;;;;;;;;;;;;;;;;;;;
2022/01/18 16:38:45;;;;;;;52.00;20.70;;;;;;;0.31;80.16;100426.64;220779;1271;22557;-71
2022/01/18 16:44:38;;;;;;;49.20;19.40;;;;;;;0.18;80.07;100432.29;220804;1271;22587;-71
2022/01/18 16:55:40;;;;;;;;;;;;;;;;;;;;;
2022/01/18 17:01:31;;;;;;;61.60;22.20;;;;;;;0.02;80.43;100449.70;220721;1271;22628;-71
2022/01/18 17:07:19;;;;;;;53.60;20.90;;;;;;;-0.02;80.64;100454.55;220622;1271;25555;-71
2022/01/18 17:12:33;;;;;;;55.90;21.30;;;;;;;-0.05;80.70;100450.41;220794;1269;25315;-70
2022/01/18 17:18:17;;;;;;;53.30;22.20;;;;;;;-0.09;80.53;100451.67;220540;1271;22580;-72
2022/01/18 17:24:35;;;;;;;;;;;;;;;;;;;;;
2022/01/18 17:30:20;;;;;;;60.70;24.20;;;;;;;-0.12;80.82;100434.77;220649;1271;22887;-71
2022/01/18 17:36:44;;;;;;;60.30;22.70;;;;;;;-0.13;80.77;100444.08;220739;1271;24219;-72
2022/01/18 17:42:20;;;;;;;69.10;25.40;;;;;;;-0.17;80.73;100433.02;220167;1271;22542;-71
2022/01/18 17:48:57;;;;;;;;;;;;;;;;;;;;;
2022/01/18 17:54:48;;;;;;;;;;;;;;;;;;;;;
2022/01/18 18:00:49;;;;;;;67.50;24.70;;;;;;;-0.25;80.68;100466.30;220767;1271;25007;-71
2022/01/18 18:06:51;;;;;;;53.80;21.40;;;;;;;-0.21;81.08;100469.65;220814;1271;24359;-71
2022/01/18 18:13:03;;;;;;;49.60;20.00;;;;;;;-0.20;80.97;100462.82;220796;1271;22548;-72
2022/01/18 18:18:41;;;;;;;48.50;19.40;;;;;;;-0.24;80.62;100463.02;220781;1271;22593;-73
2022/01/18 18:23:59;;;;;;;37.10;14.50;;;;;;;-0.36;80.53;100468.95;220580;1271;22562;-72
2022/01/18 18:29:51;;;;;;;47.00;17.10;;;;;;;-0.48;80.37;100464.65;220671;1271;24412;-72
2022/01/18 18:35:19;;;;;;;47.30;16.90;;;;;;;-0.55;80.72;100459.62;220677;1271;26624;-70
2022/01/18 18:41:19;;;;;;;42.80;16.60;;;;;;;-0.54;81.13;100467.95;220668;1270;22541;-71
2022/01/18 18:47:02;;;;;;;59.40;18.70;;;;;;;-0.56;81.10;100461.80;220642;1269;23256;-72
2022/01/18 18:52:20;;;;;;;60.80;19.90;;;;;;;-0.49;81.19;100444.45;220753;1271;23126;-72
2022/01/18 19:03:28;;;;;;;62.90;23.70;;;;;;;-0.39;81.26;100440.83;220246;1271;24181;-71
2022/01/18 19:09:05;;;;;;;76.20;26.70;;;;;;;-0.37;81.18;100450.10;220431;1271;24316;-71
2022/01/18 19:14:55;;;;;;;66.00;22.40;;;;;;;-0.38;81.19;100469.66;220775;1270;24394;-71
2022/01/18 19:20:08;;;;;;;49.30;19.80;;;;;;;-0.36;81.41;100470.66;220687;1271;22543;-72
2022/01/18 19:25:36;;;;;;;40.70;15.20;;;;;;;-0.33;81.66;100464.69;220807;1269;22676;-71
2022/01/18 19:31:47;;;;;;;29.70;11.80;;;;;;;-0.37;81.58;100464.94;220535;1271;26637;-71
2022/01/18 19:36:59;;;;;;;34.40;12.30;;;;;;;-0.41;81.78;100475.51;220724;1271;25389;-69
2022/01/18 19:42:36;;;;;;;27.60;11.00;;;;;;;-0.43;82.00;100475.13;220825;1270;23782;-70
2022/01/18 19:47:53;;;;;;;37.90;14.00;;;;;;;-0.43;82.08;100469.02;221094;1271;25447;-72
2022/01/18 19:53:19;;;;;;;36.60;12.90;;;;;;;-0.41;81.94;100471.77;221089;1271;24385;-73
2022/01/18 19:58:26;;;;;;;34.00;11.80;;;;;;;-0.38;82.28;100480.21;220815;1269;24330;-71
2022/01/18 20:04:03;;;;;;;29.20;11.60;;;;;;;-0.36;82.20;100483.99;220801;1271;24115;-71
2022/01/18 20:09:11;;;;;;;30.70;11.30;;;;;;;-0.34;82.54;100482.43;220029;1271;22657;-72
2022/01/18 20:14:29;;;;;;;33.50;12.20;;;;;;;-0.36;82.43;100486.10;220362;1271;22558;-72
2022/01/18 20:19:40;;;;;;;40.50;12.60;;;;;;;-0.35;82.43;100482.11;220355;1271;481493;-71
2022/01/18 20:24:44;;;;;;;39.60;14.40;;;;;;;-0.32;82.59;100468.14;220581;1271;24241;-72
2022/01/18 20:30:31;;;;;;;39.10;14.40;;;;;;;-0.29;82.31;100442.52;220383;1271;22549;-71
2022/01/18 20:36:16;;;;;;;42.10;18.10;;;;;;;-0.29;82.57;100421.31;220660;1270;22667;-72
2022/01/18 20:47:31;;;;;;;35.40;17.50;;;;;;;-0.37;82.08;100421.06;220234;1271;25321;-71
2022/01/18 20:52:43;;;;;;;32.00;14.50;;;;;;;-0.42;82.16;100435.84;220857;1271;26561;-71
2022/01/18 20:58:33;;;;;;;;;;;;;;;;;;;;;
2022/01/18 21:03:51;;;;;;;68.10;28.80;;;;;;;-0.41;82.41;100461.45;220629;1271;22566;-72
2022/01/18 21:09:15;;;;;;;62.30;26.00;;;;;;;-0.35;82.51;100466.88;220220;1271;22593;-72
2022/01/18 21:15:04;;;;;;;62.60;25.20;;;;;;;-0.31;82.61;100463.98;220732;1271;24298;-71
2022/01/18 21:20:30;;;;;;;54.80;23.70;;;;;;;-0.29;82.61;100462.04;220644;1268;24278;-71
2022/01/18 21:31:35;;;;;;;46.00;16.90;;;;;;;-0.39;82.27;100447.48;220549;1270;22836;-69
2022/01/18 21:36:43;;;;;;;42.60;19.20;;;;;;;-0.51;82.16;100455.29;220711;1271;22573;-72
2022/01/18 21:42:34;;;;;;;47.80;19.20;;;;;;;-0.59;82.16;100464.30;220725;1270;25365;-72
2022/01/18 21:55:09;;;;;;;58.30;25.60;;;;;;;-0.79;82.47;100473.90;220422;1269;24305;-71
2022/01/18 22:01:35;;;;;;;60.60;27.60;;;;;;;-0.74;82.78;100470.68;220201;1271;22677;-71
2022/01/18 22:07:13;;;;;;;69.70;26.80;;;;;;;-0.71;82.65;100454.21;220786;1271;24323;-72
2022/01/18 22:12:41;;;;;;;78.20;33.90;;;;;;;-0.70;82.82;100456.30;220619;1271;25245;-72
2022/01/18 22:24:57;;;;;;;;;;;;;;;;;;;;;
2022/01/18 22:30:42;;;;;;;70.70;31.80;;;;;;;-0.66;82.54;100435.80;220699;1271;22566;-70
2022/01/18 22:36:17;;;;;;;80.30;31.00;;;;;;;-0.76;82.55;100428.13;220892;1271;22536;-71
2022/01/18 22:41:57;;;;;;;74.50;31.10;;;;;;;-0.80;82.69;100429.27;220880;1269;26320;-72
2022/01/18 22:48:23;;;;;;;;;;;;;;;;;;;;;
2022/01/18 22:54:49;;;;;;;;;;;;;;;;;;;;;
2022/01/18 23:01:13;;;;;;;72.40;29.80;;;;;;;-0.65;83.51;100418.33;220844;1271;22531;-71
2022/01/18 23:06:54;;;;;;;52.70;22.30;;;;;;;-0.72;82.72;100402.45;219226;1271;22607;-71
2022/01/18 23:12:26;;;;;;;64.60;25.60;;;;;;;-0.82;82.98;100401.29;220684;1269;22925;-70
2022/01/18 23:17:31;;;;;;;61.50;25.80;;;;;;;-0.86;83.20;100392.03;220313;1271;25241;-70
2022/01/18 23:22:36;;;;;;;64.00;28.70;;;;;;;-0.88;83.17;100388.42;220639;1270;22581;-70
2022/01/18 23:33:20;;;;;;;80.20;32.00;;;;;;;-0.95;83.29;100390.16;220900;1269;22562;-70
2022/01/18 23:39:05;;;;;;;65.20;26.60;;;;;;;-0.95;83.47;100389.27;219969;1271;23241;-71
2022/01/18 23:45:20;;;;;;;;;;;;;;;;;;;;;
2022/01/18 23:51:11;;;;;;;81.80;30.10;;;;;;;-0.90;83.65;100386.83;220637;1271;24416;-72
2022/01/18 23:57:04;;;;;;;59.60;24.60;;;;;;;-0.87;83.52;100383.52;220674;1270;24947;-71
